Time;durP1;ratioP1;P1;durP2;ratioP2;P2;SDS_P1;SDS_P2;PMS_P1;PMS_P2;Temp;Humidity;BMP_temperature;BMP_pressure;BME280_temperature;BME280_humidity;BME280_pressure;Samples;Min_cycle;Max_cycle;Signal;HPM_P1;HPM_P2
2023/05/29 00:01:52;;;;;;;7.60;4.33;;;20.00;1.00;;;;;;4991586;28;20438;-71
2023/05/29 00:04:18;;;;;;;6.80;4.40;;;20.00;1.00;;;;;;4986941;28;20203;-71
2023/05/29 00:06:43;;;;;;;7.33;4.23;;;19.90;1.00;;;;;;5003261;28;20194;-71
2023/05/29 00:09:09;;;;;;;6.97;4.17;;;19.90;1.00;;;;;;4989733;28;20665;-71
2023/05/29 00:11:34;;;;;;;7.90;4.37;;;18.50;1.00;;;;;;4991420;28;20194;-71
2023/05/29 00:14:00;;;;;;;10.53;4.60;;;19.80;1.00;;;;;;4990703;28;20633;-71
2023/05/29 00:16:26;;;;;;;10.50;4.20;;;19.80;1.00;;;;;;4991175;28;20197;-71
2023/05/29 00:18:52;;;;;;;8.33;4.10;;;19.80;1.00;;;;;;4991986;28;20407;-71
2023/05/29 00:21:17;;;;;;;8.07;4.00;;;19.80;1.00;;;;;;4989972;28;20185;-71
2023/05/29 00:23:43;;;;;;;9.03;4.27;;;19.90;1.00;;;;;;4989973;28;20187;-71
2023/05/29 00:26:08;;;;;;;7.17;4.20;;;19.70;1.00;;;;;;4990842;28;20202;-71
2023/05/29 00:28:35;;;;;;;8.70;4.30;;;19.70;1.00;;;;;;4989669;28;20233;-71
2023/05/29 00:31:01;;;;;;;8.50;4.77;;;19.70;1.00;;;;;;4989443;28;20381;-71
2023/05/29 00:33:26;;;;;;;8.37;4.27;;;19.70;1.00;;;;;;4981612;28;20473;-71
2023/05/29 00:35:52;;;;;;;7.53;4.10;;;19.70;1.00;;;;;;4976426;28;20532;-71
2023/05/29 00:38:17;;;;;;;6.97;4.03;;;19.60;1.00;;;;;;4977778;28;20749;-71
2023/05/29 00:40:43;;;;;;;5.47;3.60;;;19.60;1.00;;;;;;4985459;28;20186;-71
2023/05/29 00:43:08;;;;;;;7.20;4.13;;;19.60;1.00;;;;;;4981060;28;20184;-71
2023/05/29 00:45:36;;;;;;;8.60;4.40;;;19.60;1.00;;;;;;4985708;28;20563;-72
2023/05/29 00:48:03;;;;;;;6.93;4.20;;;19.60;1.00;;;;;;5005420;28;20665;-71
2023/05/29 00:50:29;;;;;;;9.27;4.40;;;19.50;1.00;;;;;;4981429;28;20521;-71
2023/05/29 00:52:54;;;;;;;9.03;4.43;;;19.50;1.00;;;;;;4975187;28;20480;-71
2023/05/29 00:55:20;;;;;;;6.17;4.00;;;19.50;1.00;;;;;;5002437;28;20443;-71
2023/05/29 00:57:47;;;;;;;8.07;4.30;;;19.50;1.00;;;;;;4979042;28;20190;-71
2023/05/29 01:00:14;;;;;;;5.50;3.90;;;19.50;1.00;;;;;;4978717;28;20183;-71
2023/05/29 01:02:44;;;;;;;8.50;4.30;;;19.50;1.00;;;;;;4981599;28;20436;-71
2023/05/29 01:05:10;;;;;;;9.00;4.20;;;19.50;1.00;;;;;;4988875;28;20529;-71
2023/05/29 01:07:35;;;;;;;7.03;4.40;;;19.50;1.00;;;;;;4990408;28;20520;-71
2023/05/29 01:10:01;;;;;;;10.67;4.53;;;19.50;1.00;;;;;;4990342;28;20521;-71
2023/05/29 01:12:45;;;;;;;11.30;4.97;;;19.40;1.00;;;;;;4990581;28;20214;-71
2023/05/29 01:15:33;;;;;;;8.40;3.80;;;19.40;1.00;;;;;;4990050;28;20207;-72
2023/05/29 01:18:31;;;;;;;9.53;4.00;;;19.40;1.00;;;;;;4990552;28;20470;-71
2023/05/29 01:21:35;;;;;;;9.47;5.00;;;19.40;1.00;;;;;;4986674;28;20433;-71
2023/05/29 01:24:17;;;;;;;7.83;4.00;;;19.40;1.00;;;;;;4978807;28;20476;-71
2023/05/29 01:26:59;;;;;;;5.80;3.60;;;19.40;1.00;;;;;;4989181;28;20438;-71
2023/05/29 01:29:34;;;;;;;6.40;3.63;;;19.40;1.00;;;;;;4985651;28;20426;-72
2023/05/29 01:32:01;;;;;;;6.17;3.97;;;19.40;1.00;;;;;;4990392;28;20472;-71
2023/05/29 01:34:27;;;;;;;6.27;3.93;;;19.30;1.00;;;;;;4978755;28;20561;-70
2023/05/29 01:36:52;;;;;;;5.83;3.70;;;19.30;1.00;;;;;;4995127;28;20512;-71
2023/05/29 01:39:19;;;;;;;9.07;4.10;;;19.30;1.00;;;;;;4988351;28;20212;-71
2023/05/29 01:41:46;;;;;;;6.57;3.93;;;19.30;1.00;;;;;;4984511;28;20233;-72
2023/05/29 01:44:13;;;;;;;5.63;3.93;;;19.20;1.00;;;;;;4988470;28;20472;-71
2023/05/29 01:46:40;;;;;;;10.63;4.20;;;19.20;1.00;;;;;;4990109;28;20966;-71
2023/05/29 01:49:07;;;;;;;8.40;4.43;;;19.10;1.00;;;;;;4988656;28;20517;-71
2023/05/29 01:51:33;;;;;;;6.47;3.97;;;18.90;1.00;;;;;;4989515;28;20441;-71
2023/05/29 01:54:00;;;;;;;6.07;4.10;;;18.70;1.00;;;;;;4992580;28;20476;-71
2023/05/29 01:56:27;;;;;;;6.07;4.13;;;18.60;1.00;;;;;;4990347;28;20187;-71
2023/05/29 01:58:54;;;;;;;8.10;4.40;;;18.50;1.00;;;;;;4994033;28;20421;-71
2023/05/29 02:01:21;;;;;;;6.67;4.27;;;18.40;1.00;;;;;;4993389;28;20434;-71
2023/05/29 02:03:46;;;;;;;6.87;4.13;;;18.10;1.00;;;;;;4993668;28;20429;-71
2023/05/29 02:06:12;;;;;;;5.90;3.93;;;18.00;1.00;;;;;;4993474;28;20430;-71
2023/05/29 02:08:38;;;;;;;6.80;4.20;;;18.00;1.00;;;;;;4993833;28;20198;-71
2023/05/29 02:11:03;;;;;;;7.03;4.07;;;18.10;1.00;;;;;;4985215;28;20657;-70
2023/05/29 02:13:29;;;;;;;6.73;3.70;;;18.30;1.00;;;;;;4992198;28;20215;-71
2023/05/29 02:15:54;;;;;;;7.47;3.90;;;18.40;1.00;;;;;;4992377;28;20605;-71
2023/05/29 02:18:20;;;;;;;7.20;4.00;;;18.50;1.00;;;;;;4991864;28;20189;-71
2023/05/29 02:20:46;;;;;;;6.17;3.90;;;18.50;1.00;;;;;;4996361;28;20269;-71
2023/05/29 02:23:12;;;;;;;6.43;3.80;;;18.50;1.00;;;;;;4993189;28;20661;-71
2023/05/29 02:25:38;;;;;;;12.10;4.33;;;18.60;1.00;;;;;;4993232;28;20587;-71
2023/05/29 02:28:04;;;;;;;7.40;4.00;;;18.70;1.00;;;;;;4991927;28;20194;-71
2023/05/29 02:30:29;;;;;;;6.90;4.10;;;18.70;1.00;;;;;;4993484;28;20430;-71
2023/05/29 02:32:55;;;;;;;5.90;4.07;;;18.80;1.00;;;;;;4984647;28;20210;-71
2023/05/29 02:35:22;;;;;;;6.87;4.30;;;18.90;1.00;;;;;;4984725;28;20211;-71
2023/05/29 02:37:49;;;;;;;12.10;5.27;;;18.80;1.00;;;;;;4991666;28;20190;-71
2023/05/29 02:40:15;;;;;;;6.30;4.07;;;18.70;1.00;;;;;;4992795;28;20418;-71
2023/05/29 02:42:40;;;;;;;6.93;4.77;;;18.50;1.00;;;;;;4991733;28;20453;-71
2023/05/29 02:45:06;;;;;;;7.97;4.50;;;18.30;1.00;;;;;;4992533;28;20249;-71
2023/05/29 02:47:32;;;;;;;7.23;4.33;;;18.10;1.00;;;;;;4992846;28;20187;-71
2023/05/29 02:49:57;;;;;;;7.13;4.43;;;18.00;1.00;;;;;;4993046;28;20437;-71
2023/05/29 02:52:23;;;;;;;7.40;4.97;;;18.00;1.00;;;;;;4992556;28;20252;-71
2023/05/29 02:54:49;;;;;;;10.83;5.27;;;17.90;1.00;;;;;;4992644;28;20346;-71
2023/05/29 02:57:15;;;;;;;8.37;5.00;;;17.70;1.00;;;;;;4990910;28;20214;-71
2023/05/29 02:59:41;;;;;;;8.20;5.00;;;17.60;1.00;;;;;;4984920;28;20432;-71
2023/05/29 03:02:06;;;;;;;6.77;4.23;;;17.50;1.00;;;;;;4992397;28;20434;-71
2023/05/29 03:04:32;;;;;;;7.57;4.77;;;17.20;1.00;;;;;;5003076;28;20247;-71
2023/05/29 03:06:57;;;;;;;7.70;5.17;;;16.10;1.00;;;;;;4988151;28;20283;-71
2023/05/29 03:09:23;;;;;;;9.00;4.90;;;16.90;1.00;;;;;;4992421;28;20187;-70
2023/05/29 03:11:50;;;;;;;16.17;7.80;;;16.80;1.00;;;;;;4992596;28;20273;-71
2023/05/29 03:14:16;;;;;;;8.60;4.80;;;16.70;1.00;;;;;;4990740;28;20203;-71
2023/05/29 03:16:43;;;;;;;5.50;4.10;;;16.60;1.00;;;;;;4984401;28;20454;-71
2023/05/29 03:19:09;;;;;;;6.47;4.10;;;16.40;1.00;;;;;;4992287;28;20431;-71
2023/05/29 03:21:35;;;;;;;6.20;4.47;;;16.30;1.00;;;;;;4983048;28;20426;-71
2023/05/29 03:24:02;;;;;;;6.80;3.93;;;16.20;1.00;;;;;;4984883;28;20176;-71
2023/05/29 03:26:28;;;;;;;7.80;4.70;;;16.10;1.00;;;;;;4989774;28;20480;-71
2023/05/29 03:28:53;;;;;;;8.13;4.60;;;16.00;1.00;;;;;;4992376;28;20430;-71
2023/05/29 03:31:19;;;;;;;8.20;4.60;;;15.80;1.00;;;;;;4991801;28;20187;-71
2023/05/29 03:33:45;;;;;;;7.63;4.57;;;15.70;1.00;;;;;;4992208;28;20207;-71
2023/05/29 03:36:11;;;;;;;8.37;4.93;;;15.60;1.00;;;;;;4982436;28;20677;-71
2023/05/29 03:38:36;;;;;;;6.03;4.30;;;15.50;1.00;;;;;;4991821;28;20497;-71
2023/05/29 03:41:02;;;;;;;9.60;4.77;;;15.40;1.00;;;;;;4992144;28;20197;-70
2023/05/29 03:43:28;;;;;;;10.03;4.47;;;15.20;1.00;;;;;;4991648;28;20218;-71
2023/05/29 03:45:53;;;;;;;9.33;4.50;;;15.10;1.00;;;;;;5060374;23;20313;-75
2023/05/29 03:48:19;;;;;;;8.53;4.40;;;15.10;1.00;;;;;;5009820;28;20553;-74
2023/05/29 03:50:46;;;;;;;6.90;4.40;;;15.10;1.00;;;;;;5012411;28;20193;-75
2023/05/29 03:53:11;;;;;;;12.20;4.60;;;15.10;1.00;;;;;;5011506;28;20210;-74
2023/05/29 03:55:37;;;;;;;6.33;4.40;;;15.10;1.00;;;;;;5011898;28;20852;-74
2023/05/29 03:58:02;;;;;;;7.53;4.70;;;15.10;1.00;;;;;;5007708;28;20214;-75
2023/05/29 04:00:28;;;;;;;8.17;4.70;;;15.00;1.00;;;;;;5010383;28;20248;-74
2023/05/29 04:02:55;;;;;;;6.50;4.40;;;15.00;1.00;;;;;;5011878;28;20186;-75
2023/05/29 04:05:21;;;;;;;8.93;4.60;;;15.00;1.00;;;;;;5011217;28;20554;-74
2023/05/29 04:07:46;;;;;;;8.33;4.70;;;15.40;1.00;;;;;;5011751;28;20433;-74
2023/05/29 04:10:12;;;;;;;10.10;4.77;;;15.00;1.00;;;;;;5011509;28;20548;-73
2023/05/29 04:12:38;;;;;;;8.40;4.33;;;15.00;1.00;;;;;;5010453;28;20217;-75
2023/05/29 04:15:04;;;;;;;7.77;4.03;;;15.00;1.00;;;;;;5011092;28;20702;-74
2023/05/29 04:17:29;;;;;;;7.60;4.70;;;15.00;1.00;;;;;;5010822;28;20645;-75
2023/05/29 04:19:55;;;;;;;9.53;4.43;;;15.00;1.00;;;;;;5011495;28;20422;-74
2023/05/29 04:22:20;;;;;;;8.37;4.70;;;14.90;1.00;;;;;;5009883;28;20534;-74
2023/05/29 04:24:46;;;;;;;7.20;4.23;;;15.10;1.00;;;;;;5010129;28;20734;-74
2023/05/29 04:27:12;;;;;;;7.17;4.60;;;15.10;1.00;;;;;;5011007;28;20522;-73
2023/05/29 04:29:42;;;;;;;5.97;4.43;;;15.10;1.00;;;;;;5011518;28;20633;-75
2023/05/29 04:32:09;;;;;;;8.00;4.40;;;15.10;1.00;;;;;;5011160;28;20418;-74
2023/05/29 04:34:35;;;;;;;9.40;4.67;;;15.20;1.00;;;;;;5010690;28;20477;-74
2023/05/29 04:37:02;;;;;;;9.60;5.00;;;15.20;1.00;;;;;;5011129;28;20413;-75
2023/05/29 04:39:28;;;;;;;13.37;5.27;;;15.20;1.00;;;;;;5011012;28;20189;-74
2023/05/29 04:41:53;;;;;;;7.37;4.30;;;15.20;1.00;;;;;;5011336;28;20422;-75
2023/05/29 04:44:19;;;;;;;8.50;4.43;;;15.30;1.00;;;;;;5010688;28;20222;-74
2023/05/29 04:46:45;;;;;;;6.37;4.50;;;15.30;1.00;;;;;;5010758;28;20214;-74
2023/05/29 04:49:12;;;;;;;7.07;4.57;;;15.30;1.00;;;;;;5011352;28;20224;-75
2023/05/29 04:51:40;;;;;;;8.00;4.90;;;15.30;1.00;;;;;;5010987;28;20178;-75
2023/05/29 04:54:06;;;;;;;6.90;4.40;;;15.40;1.00;;;;;;5009691;28;20799;-75
2023/05/29 04:56:32;;;;;;;8.13;4.70;;;15.40;1.00;;;;;;5006007;28;20430;-76
2023/05/29 04:58:58;;;;;;;9.77;5.27;;;15.40;1.00;;;;;;5009768;28;20439;-75
2023/05/29 05:01:24;;;;;;;7.23;4.63;;;15.50;1.00;;;;;;5008954;28;20197;-75
2023/05/29 05:03:49;;;;;;;8.60;5.00;;;15.60;1.00;;;;;;5009471;28;20928;-75
2023/05/29 05:06:16;;;;;;;12.60;5.50;;;15.70;1.00;;;;;;5010416;28;20229;-74
2023/05/29 05:08:42;;;;;;;12.07;5.27;;;15.70;1.00;;;;;;5009466;28;20186;-74
2023/05/29 05:11:07;;;;;;;8.17;5.47;;;15.80;1.00;;;;;;5010732;28;20564;-74
2023/05/29 05:13:33;;;;;;;7.20;4.50;;;15.90;1.00;;;;;;5010415;28;20551;-74
2023/05/29 05:15:59;;;;;;;6.83;4.10;;;16.00;1.00;;;;;;5010641;28;20203;-75
2023/05/29 05:18:24;;;;;;;8.23;4.80;;;16.10;1.00;;;;;;5010255;28;20179;-74
2023/05/29 05:20:50;;;;;;;7.23;4.90;;;16.20;1.00;;;;;;5010704;28;20600;-75
2023/05/29 05:23:15;;;;;;;8.20;4.83;;;16.30;1.00;;;;;;5005427;28;20186;-74
2023/05/29 05:25:41;;;;;;;10.57;4.97;;;16.30;1.00;;;;;;5010439;28;20210;-75
2023/05/29 05:28:08;;;;;;;6.60;4.90;;;16.30;1.00;;;;;;5014029;28;20676;-75
2023/05/29 05:30:33;;;;;;;7.63;5.00;;;16.40;1.00;;;;;;5014333;28;20605;-75
2023/05/29 05:32:59;;;;;;;6.63;5.07;;;16.50;1.00;;;;;;5014400;28;20501;-74
2023/05/29 05:35:25;;;;;;;9.50;4.97;;;16.60;1.00;;;;;;5014139;28;20198;-74
2023/05/29 05:37:50;;;;;;;9.90;5.33;;;16.60;1.00;;;;;;5014338;28;20484;-74
2023/05/29 05:40:16;;;;;;;7.73;5.03;;;16.70;1.00;;;;;;5014465;28;20241;-73
2023/05/29 05:42:41;;;;;;;11.80;5.40;;;16.80;1.00;;;;;;5014411;28;20737;-75
2023/05/29 05:45:07;;;;;;;8.50;5.20;;;17.00;1.00;;;;;;5014032;28;20265;-75
2023/05/29 05:47:33;;;;;;;6.23;4.60;;;17.00;1.00;;;;;;5013654;28;20237;-75
2023/05/29 05:49:59;;;;;;;6.80;4.60;;;17.10;1.00;;;;;;5013994;28;20848;-75
2023/05/29 05:52:30;;;;;;;8.60;4.70;;;17.20;1.00;;;;;;5013550;28;20666;-74
2023/05/29 05:54:55;;;;;;;7.80;4.47;;;17.40;1.00;;;;;;5013879;28;20702;-75
2023/05/29 05:57:21;;;;;;;7.03;5.27;;;17.50;1.00;;;;;;5008455;28;20472;-74
2023/05/29 05:59:46;;;;;;;9.70;4.60;;;17.50;1.00;;;;;;5013849;28;20423;-75
2023/05/29 06:02:12;;;;;;;7.60;4.87;;;17.60;1.00;;;;;;5013781;28;20252;-75
2023/05/29 06:04:37;;;;;;;7.70;5.27;;;17.70;1.00;;;;;;5013271;28;20317;-75
2023/05/29 06:07:03;;;;;;;8.90;5.03;;;17.80;1.00;;;;;;5013520;28;20235;-75
2023/05/29 06:09:29;;;;;;;11.90;5.30;;;17.90;1.00;;;;;;5013014;28;20213;-74
2023/05/29 06:11:55;;;;;;;9.37;5.20;;;18.10;1.00;;;;;;5013673;28;20698;-75
2023/05/29 06:14:20;;;;;;;8.80;4.80;;;18.20;1.00;;;;;;5012874;28;20198;-74
2023/05/29 06:16:46;;;;;;;8.30;5.13;;;18.20;1.00;;;;;;5013393;28;20269;-75
2023/05/29 06:19:12;;;;;;;11.93;5.30;;;18.40;1.00;;;;;;5013625;28;20182;-75
2023/05/29 06:21:37;;;;;;;9.23;4.77;;;18.40;1.00;;;;;;5013040;28;20467;-74
2023/05/29 06:24:03;;;;;;;7.30;4.60;;;18.40;1.00;;;;;;5013635;28;20266;-75
2023/05/29 06:26:28;;;;;;;10.27;4.97;;;18.50;1.00;;;;;;5012859;28;20238;-74
2023/05/29 06:28:54;;;;;;;9.87;5.03;;;18.60;1.00;;;;;;5013180;28;20194;-74
2023/05/29 06:31:20;;;;;;;9.82;4.80;;;18.70;1.00;;;;;;5011732;28;20414;-74
2023/05/29 06:33:46;;;;;;;9.97;5.10;;;;;;;;;;5012823;28;20269;-75
2023/05/29 06:36:11;;;;;;;11.30;4.60;;;18.80;1.00;;;;;;5012933;28;20209;-75
2023/05/29 06:38:37;;;;;;;9.87;5.10;;;18.90;1.00;;;;;;5012166;28;20190;-75
2023/05/29 06:41:03;;;;;;;9.23;4.60;;;19.00;1.00;;;;;;5013020;28;20410;-75
2023/05/29 06:43:29;;;;;;;9.40;4.50;;;19.20;1.00;;;;;;5012518;28;20653;-74
2023/05/29 06:45:55;;;;;;;8.23;4.80;;;19.40;1.00;;;;;;5012731;28;20213;-75
2023/05/29 06:48:21;;;;;;;7.77;4.40;;;19.50;1.00;;;;;;5012570;28;20244;-74
2023/05/29 06:50:48;;;;;;;7.87;4.20;;;19.60;1.00;;;;;;5012728;28;20210;-75
2023/05/29 06:53:14;;;;;;;7.67;4.33;;;19.80;1.00;;;;;;5012312;28;20461;-75
2023/05/29 06:55:42;;;;;;;8.27;4.50;;;20.00;1.00;;;;;;5012375;28;20502;-75
2023/05/29 06:58:08;;;;;;;6.73;4.40;;;20.00;1.00;;;;;;5007298;28;20181;-75
2023/05/29 07:00:33;;;;;;;8.57;4.37;;;20.10;1.00;;;;;;5012320;28;20504;-75
2023/05/29 07:02:59;;;;;;;7.47;5.03;;;20.20;1.00;;;;;;5012362;28;20224;-75
2023/05/29 07:05:26;;;;;;;11.23;4.80;;;20.40;1.00;;;;;;5010474;28;20205;-74
2023/05/29 07:07:52;;;;;;;10.77;4.77;;;20.60;1.00;;;;;;5012162;28;20239;-75
2023/05/29 07:10:17;;;;;;;9.73;4.90;;;20.80;1.00;;;;;;5012370;28;20428;-75
2023/05/29 07:12:43;;;;;;;8.10;4.43;;;21.00;1.00;;;;;;5011623;28;20205;-75
2023/05/29 07:15:09;;;;;;;7.17;4.60;;;21.20;1.00;;;;;;5012050;28;20198;-76
2023/05/29 07:17:34;;;;;;;6.23;4.50;;;21.30;1.00;;;;;;5011279;28;20178;-76
2023/05/29 07:20:00;;;;;;;7.30;4.63;;;21.50;1.00;;;;;;5012157;28;20417;-75
2023/05/29 07:22:25;;;;;;;7.53;4.67;;;21.60;1.00;;;;;;5011540;28;20261;-76
2023/05/29 07:24:51;;;;;;;8.37;4.37;;;21.80;1.00;;;;;;5011528;28;20205;-75
2023/05/29 07:27:16;;;;;;;7.50;4.40;;;22.00;1.00;;;;;;5011573;28;20186;-76
2023/05/29 07:29:42;;;;;;;12.20;4.67;;;22.20;1.00;;;;;;5011673;28;20185;-75
2023/05/29 07:32:09;;;;;;;6.40;4.30;;;22.50;1.00;;;;;;5011949;28;20635;-75
2023/05/29 07:34:35;;;;;;;6.47;4.30;;;23.10;1.00;;;;;;5009843;28;20254;-75
2023/05/29 07:37:03;;;;;;;8.80;4.50;;;23.10;1.00;;;;;;5011648;28;20428;-75
2023/05/29 07:39:29;;;;;;;17.73;3.70;;;23.30;1.00;;;;;;5011446;28;20178;-75
2023/05/29 07:41:55;;;;;;;7.23;4.40;;;23.60;1.00;;;;;;5011672;28;20421;-75
2023/05/29 07:44:20;;;;;;;6.47;4.17;;;23.80;1.00;;;;;;5011377;28;20433;-76
2023/05/29 07:46:46;;;;;;;6.60;4.10;;;23.80;1.00;;;;;;5011511;28;20243;-75
2023/05/29 07:49:13;;;;;;;9.70;4.93;;;27.10;1.00;;;;;;5011460;28;20189;-75
2023/05/29 07:51:38;;;;;;;6.67;4.53;;;24.00;1.00;;;;;;5011561;28;20653;-75
2023/05/29 07:54:05;;;;;;;6.23;4.30;;;24.30;1.00;;;;;;5011941;28;20687;-75
2023/05/29 07:56:33;;;;;;;9.10;4.90;;;24.50;1.00;;;;;;5010984;28;20232;-75
2023/05/29 07:58:59;;;;;;;7.60;4.30;;;25.60;1.00;;;;;;5010730;28;20432;-75
2023/05/29 08:01:26;;;;;;;6.90;4.60;;;24.90;1.00;;;;;;5011470;28;20425;-75
2023/05/29 08:03:51;;;;;;;6.93;4.60;;;25.20;1.00;;;;;;5011442;28;20182;-75
2023/05/29 08:06:17;;;;;;;6.73;4.30;;;25.00;1.00;;;;;;5011745;28;20510;-75
2023/05/29 08:08:43;;;;;;;8.00;4.57;;;24.90;1.00;;;;;;5011308;28;20186;-75
2023/05/29 08:11:09;;;;;;;9.70;4.80;;;24.70;1.00;;;;;;5010266;28;20560;-76
2023/05/29 08:13:34;;;;;;;6.53;4.20;;;24.80;1.00;;;;;;5011166;28;20456;-75
2023/05/29 08:16:00;;;;;;;6.67;4.30;;;25.20;1.00;;;;;;5011500;28;20603;-76
2023/05/29 08:18:26;;;;;;;7.83;4.50;;;25.60;1.00;;;;;;5010169;28;20621;-74
2023/05/29 08:20:52;;;;;;;6.07;4.37;;;25.90;1.00;;;;;;5011569;28;20182;-76
2023/05/29 08:23:18;;;;;;;6.23;4.23;;;26.00;1.00;;;;;;5011355;28;20174;-75
2023/05/29 08:25:44;;;;;;;7.23;4.23;;;26.00;1.00;;;;;;5010927;28;20479;-75
2023/05/29 08:28:10;;;;;;;11.43;4.60;;;26.20;1.00;;;;;;5011283;28;21006;-75
2023/05/29 08:30:36;;;;;;;8.50;4.33;;;26.10;1.00;;;;;;5011055;28;20515;-76
2023/05/29 08:33:03;;;;;;;7.13;5.20;;;26.40;1.00;;;;;;5007884;28;20205;-76
2023/05/29 08:35:28;;;;;;;8.30;4.70;;;26.50;1.00;;;;;;5010825;28;20452;-76
2023/05/29 08:37:54;;;;;;;8.80;4.60;;;26.50;1.00;;;;;;5009717;28;20467;-76
2023/05/29 08:40:20;;;;;;;9.60;4.40;;;26.60;1.00;;;;;;5011355;28;20212;-76
2023/05/29 08:42:50;;;;;;;6.90;4.77;;;26.70;1.00;;;;;;5010802;28;20544;-76
2023/05/29 08:45:18;;;;;;;6.97;4.63;;;26.80;1.00;;;;;;5011117;28;20225;-75
2023/05/29 08:47:46;;;;;;;7.40;4.30;;;27.00;1.00;;;;;;5009403;28;20947;-76
2023/05/29 08:50:15;;;;;;;9.30;5.00;;;27.00;1.00;;;;;;5011123;28;20428;-76
2023/05/29 08:52:40;;;;;;;7.20;4.23;;;27.20;1.00;;;;;;5010332;28;20432;-76
2023/05/29 08:55:07;;;;;;;7.57;4.47;;;27.60;1.00;;;;;;5009665;28;20202;-76
2023/05/29 08:57:32;;;;;;;7.00;4.70;;;27.90;1.00;;;;;;5009185;28;20186;-75
2023/05/29 08:59:59;;;;;;;7.40;4.67;;;28.90;1.00;;;;;;5011039;28;20174;-76
2023/05/29 09:02:24;;;;;;;6.67;4.50;;;29.90;1.00;;;;;;5010700;28;20740;-76
2023/05/29 09:04:52;;;;;;;8.15;4.35;;;31.70;1.00;;;;;;5010367;28;20343;-76
2023/05/29 09:07:19;;;;;;;7.05;4.50;;;32.10;1.00;;;;;;5010530;28;20174;-76
2023/05/29 09:09:45;;;;;;;9.00;4.20;;;32.90;1.00;;;;;;5010610;28;20181;-76
2023/05/29 09:12:11;;;;;;;9.77;4.38;;;33.80;1.00;;;;;;5010821;28;20178;-76
2023/05/29 09:14:40;;;;;;;5.82;3.90;;;34.50;1.00;;;;;;5010376;28;20692;-76
2023/05/29 09:17:06;;;;;;;8.73;4.30;;;35.00;1.00;;;;;;5010757;28;20174;-77
2023/05/29 09:19:33;;;;;;;7.20;4.20;;;35.90;1.00;;;;;;5010443;28;20205;-77
2023/05/29 09:22:02;;;;;;;5.57;3.58;;;36.20;1.00;;;;;;5010573;28;20544;-77
2023/05/29 09:24:28;;;;;;;5.80;4.25;;;35.70;1.00;;;;;;5010418;28;20214;-76
2023/05/29 09:26:53;;;;;;;9.55;3.67;;;33.80;1.00;;;;;;5002580;28;20192;-76
2023/05/29 09:29:20;;;;;;;7.05;4.00;;;35.40;1.00;;;;;;5010731;28;20735;-77
2023/05/29 09:31:46;;;;;;;6.10;3.75;;;35.40;1.00;;;;;;5010109;28;20182;-77
2023/05/29 09:34:12;;;;;;;6.35;3.63;;;36.30;1.00;;;;;;5010160;28;20228;-77
2023/05/29 09:36:38;;;;;;;7.20;3.85;;;36.20;1.00;;;;;;5010164;28;20177;-76
2023/05/29 09:39:04;;;;;;;6.65;4.10;;;36.60;1.00;;;;;;5010668;28;20178;-77
2023/05/29 09:41:31;;;;;;;5.95;4.40;;;36.10;1.00;;;;;;5010157;28;20667;-76
2023/05/29 09:43:59;;;;;;;5.43;3.50;;;36.10;1.00;;;;;;5010484;28;20181;-77
2023/05/29 09:46:26;;;;;;;8.95;4.10;;;36.60;1.00;;;;;;5010503;28;20222;-76
2023/05/29 09:48:52;;;;;;;5.70;3.47;;;36.80;1.00;;;;;;5009567;28;20235;-77
2023/05/29 09:51:24;;;;;;;6.30;3.83;;;36.60;1.00;;;;;;5009870;28;20182;-76
2023/05/29 09:53:53;;;;;;;7.05;3.42;;;36.50;1.00;;;;;;5009459;28;20237;-77
2023/05/29 09:56:24;;;;;;;5.22;3.60;;;37.00;1.00;;;;;;5009639;28;20247;-77
2023/05/29 09:58:51;;;;;;;6.95;3.92;;;36.90;1.00;;;;;;5008373;28;20182;-76
2023/05/29 10:01:17;;;;;;;5.35;3.97;;;36.60;1.00;;;;;;5009695;28;20174;-77
2023/05/29 10:03:43;;;;;;;12.77;4.22;;;36.10;1.00;;;;;;5009059;28;20186;-76
2023/05/29 10:06:14;;;;;;;10.02;3.95;;;35.80;1.00;;;;;;5009580;28;20263;-77
2023/05/29 10:08:47;;;;;;;8.50;4.30;;;35.50;1.00;;;;;;5008724;28;20186;-76
2023/05/29 10:11:15;;;;;;;4.70;3.40;;;35.10;1.00;;;;;;5009786;28;20201;-77
2023/05/29 10:13:48;;;;;;;6.03;4.00;;;35.50;1.00;;;;;;5011758;28;20212;-77
2023/05/29 10:16:14;;;;;;;7.05;3.95;;;35.30;1.00;;;;;;5013273;28;20205;-76
2023/05/29 10:18:43;;;;;;;7.45;4.00;;;35.40;1.00;;;;;;5013218;28;20228;-76
2023/05/29 10:21:11;;;;;;;5.95;3.85;;;35.80;1.00;;;;;;5013262;28;20193;-77
2023/05/29 10:23:38;;;;;;;10.95;4.43;;;36.20;1.00;;;;;;5011628;28;20182;-76
2023/05/29 10:26:11;;;;;;;7.60;4.20;;;36.00;1.00;;;;;;5013217;28;20695;-77
2023/05/29 10:28:44;;;;;;;8.30;3.42;;;36.30;1.00;;;;;;5012668;28;20208;-76
2023/05/29 10:31:17;;;;;;;11.20;4.40;;;36.30;1.00;;;;;;5011842;28;20548;-77
2023/05/29 10:33:59;;;;;;;6.18;3.63;;;36.40;1.00;;;;;;5010445;28;20209;-76
2023/05/29 10:36:31;;;;;;;8.25;3.83;;;37.90;1.00;;;;;;5011366;28;20205;-76
2023/05/29 10:38:57;;;;;;;7.45;3.83;;;39.10;1.00;;;;;;5012581;28;20565;-77
2023/05/29 10:41:26;;;;;;;6.00;3.42;;;39.00;1.00;;;;;;5012904;28;20186;-77
2023/05/29 10:43:57;;;;;;;9.43;3.90;;;38.80;1.00;;;;;;5012600;28;20227;-77
2023/05/29 10:46:46;;;;;;;8.25;3.67;;;38.60;1.00;;;;;;5012707;28;20208;-77
2023/05/29 10:49:21;;;;;;;6.95;3.90;;;38.50;1.00;;;;;;5011548;28;20564;-77
2023/05/29 10:51:48;;;;;;;8.93;4.00;;;38.40;1.00;;;;;;5011125;28;20659;-77
2023/05/29 10:54:16;;;;;;;6.68;3.85;;;39.20;1.00;;;;;;5012349;28;20715;-77
2023/05/29 10:56:45;;;;;;;6.05;3.78;;;39.20;1.00;;;;;;5012112;28;20281;-77
2023/05/29 10:59:10;;;;;;;8.43;4.22;;;38.90;1.00;;;;;;5012802;28;20181;-77
2023/05/29 11:01:39;;;;;;;7.85;4.55;;;39.50;1.00;;;;;;5012036;28;20178;-76
2023/05/29 11:04:26;;;;;;;5.03;3.90;;;39.40;1.00;;;;;;5012173;28;20186;-78
2023/05/29 11:06:52;;;;;;;6.43;4.07;;;39.40;1.00;;;;;;5010846;28;20730;-77
2023/05/29 11:09:35;;;;;;;5.95;3.70;;;39.70;1.00;;;;;;5012823;28;20639;-77
2023/05/29 11:12:33;;;;;;;6.22;4.35;;;39.90;1.00;;;;;;5011055;28;20192;-77
2023/05/29 11:15:06;;;;;;;6.25;3.85;;;39.50;1.00;;;;;;5010635;28;20241;-77
2023/05/29 11:17:38;;;;;;;6.90;4.25;;;39.60;1.00;;;;;;5011751;28;20552;-77
2023/05/29 11:20:05;;;;;;;6.03;4.00;;;40.20;1.00;;;;;;5012387;28;20189;-77
2023/05/29 11:22:46;;;;;;;7.82;3.80;;;40.90;1.00;;;;;;5011759;28;20441;-77
2023/05/29 11:25:13;;;;;;;5.68;3.85;;;41.90;1.00;;;;;;5004380;28;20204;-77
2023/05/29 11:27:40;;;;;;;4.97;3.70;;;41.90;1.00;;;;;;5011568;28;20327;-77
2023/05/29 11:30:06;;;;;;;6.15;3.70;;;42.80;1.00;;;;;;5010845;28;20221;-77
2023/05/29 11:32:36;;;;;;;10.00;3.90;;;42.90;1.00;;;;;;5011775;28;20192;-77
2023/05/29 11:35:08;;;;;;;8.27;3.95;;;42.00;1.00;;;;;;5010358;28;20289;-77
2023/05/29 11:37:34;;;;;;;5.43;3.75;;;42.00;1.00;;;;;;5012352;28;20564;-77
2023/05/29 11:40:03;;;;;;;4.85;3.90;;;42.30;1.00;;;;;;5010349;28;20174;-77
2023/05/29 11:42:29;;;;;;;7.00;3.95;;;42.10;1.00;;;;;;5011894;28;20648;-77
2023/05/29 11:44:54;;;;;;;7.30;4.07;;;42.10;1.00;;;;;;5009976;28;20218;-77
2023/05/29 11:47:22;;;;;;;5.03;3.65;;;42.30;1.00;;;;;;5011604;28;20186;-77
2023/05/29 11:49:49;;;;;;;5.45;3.65;;;42.50;1.00;;;;;;5010270;28;20197;-77
2023/05/29 11:52:14;;;;;;;5.63;4.25;;;42.40;1.00;;;;;;5011670;28;20710;-77
2023/05/29 11:54:46;;;;;;;6.90;3.80;;;42.80;1.00;;;;;;5011123;28;20242;-77
2023/05/29 11:57:21;;;;;;;5.28;3.88;;;42.80;1.00;;;;;;5003544;28;20269;-77
2023/05/29 11:59:47;;;;;;;5.85;4.03;;;44.00;1.00;;;;;;5009121;28;20192;-76
2023/05/29 12:02:13;;;;;;;8.95;3.80;;;43.50;1.00;;;;;;5009794;28;20182;-77
2023/05/29 12:04:39;;;;;;;4.57;3.40;;;42.70;1.00;;;;;;5010863;28;20213;-76
2023/05/29 12:07:20;;;;;;;6.60;3.85;;;42.90;1.00;;;;;;5009990;28;20178;-77
2023/05/29 12:09:47;;;;;;;5.72;3.90;;;42.70;1.00;;;;;;5009845;28;20231;-77
2023/05/29 12:12:13;;;;;;;5.38;4.10;;;42.70;1.00;;;;;;5011335;28;20182;-77
2023/05/29 12:14:38;;;;;;;6.68;3.70;;;42.30;1.00;;;;;;5010820;28;20260;-78
2023/05/29 12:17:05;;;;;;;5.90;3.85;;;42.40;1.00;;;;;;5002852;28;20196;-77
2023/05/29 12:19:30;;;;;;;6.55;3.45;;;43.00;1.00;;;;;;5011278;28;20188;-77
2023/05/29 12:21:57;;;;;;;5.35;3.38;;;42.50;1.00;;;;;;5010789;28;20186;-77
2023/05/29 12:24:23;;;;;;;5.80;3.42;;;41.90;1.00;;;;;;5010940;28;20192;-77
2023/05/29 12:26:48;;;;;;;4.35;3.30;;;41.90;1.00;;;;;;5010460;28;20182;-77
2023/05/29 12:29:14;;;;;;;5.55;3.35;;;42.60;1.00;;;;;;5010912;28;20747;-77
2023/05/29 12:31:41;;;;;;;5.43;3.65;;;42.70;1.00;;;;;;5010371;28;20212;-75
2023/05/29 12:34:12;;;;;;;4.88;3.47;;;43.50;1.00;;;;;;5009587;28;20206;-78
2023/05/29 12:36:40;;;;;;;5.53;3.80;;;43.50;1.00;;;;;;5010597;28;20759;-77
2023/05/29 12:39:08;;;;;;;6.35;3.70;;;43.60;1.00;;;;;;5011114;28;20186;-77
2023/05/29 12:41:35;;;;;;;7.82;3.70;;;43.60;1.00;;;;;;5010784;28;20182;-77
2023/05/29 12:44:03;;;;;;;7.28;3.60;;;43.50;1.00;;;;;;5010092;28;20193;-77
2023/05/29 12:46:36;;;;;;;5.90;3.00;;;43.70;1.00;;;;;;5009024;28;20296;-77
2023/05/29 12:49:23;;;;;;;5.88;3.28;;;43.40;1.00;;;;;;5010556;28;20707;-77
2023/05/29 12:51:49;;;;;;;4.35;3.22;;;43.00;1.00;;;;;;5010298;28;20727;-77
2023/05/29 12:54:16;;;;;;;5.43;3.30;;;42.70;1.00;;;;;;5010661;28;20213;-77
2023/05/29 12:56:42;;;;;;;5.57;3.25;;;42.70;1.00;;;;;;5009922;28;20584;-76